Time;durP1;ratioP1;P1;durP2;ratioP2;P2;SDS_P1;SDS_P2;PMS_P1;PMS_P2;Temp;Humidity;BMP_temperature;BMP_pressure;BME280_temperature;BME280_humidity;BME280_pressure;Samples;Min_cycle;Max_cycle;Signal;HPM_P1;HPM_P2
2022/08/13 00:01:51;;;;;;;2.83;1.20;;;22.40;55.90;;;;;;4419683;32;20046;-68
2022/08/13 00:04:21;;;;;;;1.92;1.30;;;22.40;56.20;;;;;;4419724;32;19997;-68
2022/08/13 00:09:42;;;;;;;3.83;0.90;;;22.30;56.30;;;;;;4411690;32;19974;-68
2022/08/13 00:14:59;;;;;;;2.25;1.23;;;22.30;56.40;;;;;;4417017;32;20047;-68
2022/08/13 00:17:25;;;;;;;1.10;1.00;;;22.30;56.40;;;;;;4419588;32;19958;-68
2022/08/13 00:19:53;;;;;;;2.03;1.20;;;22.30;56.40;;;;;;4420415;32;20006;-67
2022/08/13 00:22:25;;;;;;;1.98;1.20;;;22.30;56.20;;;;;;4422543;32;19957;-68
2022/08/13 00:24:55;;;;;;;2.67;1.30;;;22.40;56.30;;;;;;4421341;32;19974;-68
2022/08/13 00:27:22;;;;;;;1.27;1.10;;;22.30;56.80;;;;;;4422630;32;19963;-68
2022/08/13 00:29:50;;;;;;;3.03;1.35;;;22.30;56.50;;;;;;4422585;32;19976;-69
2022/08/13 00:32:21;;;;;;;1.67;1.30;;;22.20;56.80;;;;;;4422516;32;19958;-68
2022/08/13 00:34:49;;;;;;;1.98;1.00;;;22.10;56.80;;;;;;4422499;32;19960;-68
2022/08/13 00:37:16;;;;;;;3.53;1.30;;;22.10;57.00;;;;;;4422364;32;19963;-68
2022/08/13 00:39:42;;;;;;;2.58;1.37;;;22.00;57.40;;;;;;4422368;32;20160;-68
2022/08/13 00:42:10;;;;;;;3.37;1.30;;;21.90;57.50;;;;;;4422269;32;19958;-68
2022/08/13 00:44:39;;;;;;;2.67;1.48;;;21.80;57.70;;;;;;4418800;32;20014;-68
2022/08/13 00:49:51;;;;;;;1.15;1.05;;;21.80;58.00;;;;;;4422184;32;19988;-69
2022/08/13 00:52:18;;;;;;;1.67;1.30;;;22.00;57.50;;;;;;4422124;32;20044;-68
2022/08/13 00:54:44;;;;;;;2.22;1.20;;;21.80;58.30;;;;;;4422233;32;19959;-68
2022/08/13 00:57:12;;;;;;;2.20;1.17;;;21.70;58.40;;;;;;4422028;32;19991;-68
2022/08/13 00:59:39;;;;;;;1.90;1.62;;;21.80;58.00;;;;;;4422021;32;20019;-68
2022/08/13 01:02:06;;;;;;;1.25;1.15;;;21.80;58.10;;;;;;4422103;32;19993;-68
2022/08/13 01:04:34;;;;;;;2.90;1.40;;;21.80;58.10;;;;;;4405784;32;19974;-68
2022/08/13 01:07:01;;;;;;;2.20;1.40;;;21.80;58.00;;;;;;4422167;32;20004;-69
2022/08/13 01:09:29;;;;;;;3.35;1.20;;;21.90;57.90;;;;;;4421993;32;19976;-68
2022/08/13 01:11:58;;;;;;;2.00;1.10;;;21.80;58.00;;;;;;4422048;32;19960;-68
2022/08/13 01:14:31;;;;;;;1.42;1.10;;;21.70;58.50;;;;;;4421922;32;19979;-69
2022/08/13 01:17:01;;;;;;;2.00;1.23;;;21.60;58.60;;;;;;4421902;32;19994;-69
2022/08/13 01:19:28;;;;;;;1.70;1.02;;;21.70;58.60;;;;;;4421721;32;19996;-68
2022/08/13 01:21:57;;;;;;;3.72;1.45;;;21.60;58.60;;;;;;4421738;32;20105;-68
2022/08/13 01:24:25;;;;;;;1.80;1.10;;;21.70;58.50;;;;;;4421700;32;20002;-69
2022/08/13 01:26:53;;;;;;;2.08;1.20;;;21.60;58.60;;;;;;4421779;32;19999;-68
2022/08/13 01:29:20;;;;;;;2.25;1.00;;;21.60;58.60;;;;;;4421666;32;19959;-68
2022/08/13 01:31:48;;;;;;;1.60;1.10;;;21.50;59.60;;;;;;4421035;32;19960;-68
2022/08/13 01:34:15;;;;;;;1.35;1.10;;;21.50;59.40;;;;;;4421561;32;20091;-67
2022/08/13 01:36:43;;;;;;;1.23;1.17;;;21.50;59.00;;;;;;4408529;32;20107;-68
2022/08/13 01:39:11;;;;;;;2.10;1.10;;;21.40;59.70;;;;;;4421638;32;19960;-68
2022/08/13 01:41:38;;;;;;;2.87;1.25;;;21.40;59.10;;;;;;4421382;32;19996;-68
2022/08/13 01:44:06;;;;;;;2.05;1.20;;;21.50;59.10;;;;;;4421530;32;20159;-68
2022/08/13 01:50:28;;;;;;;2.42;1.15;;;21.60;58.70;;;;;;4421496;32;20127;-68
2022/08/13 01:52:07;;;;;;;1.60;1.20;;;21.30;59.50;;;;;;4416247;32;20010;-69
2022/08/13 01:54:36;;;;;;;1.30;1.05;;;21.30;59.60;;;;;;4421180;32;19991;-68
2022/08/13 01:57:05;;;;;;;1.40;1.23;;;21.30;59.50;;;;;;4421285;32;20020;-69
2022/08/13 01:59:34;;;;;;;1.77;1.10;;;21.30;59.60;;;;;;4421326;32;19961;-69
2022/08/13 02:02:01;;;;;;;1.33;1.20;;;21.10;59.60;;;;;;4420314;32;19983;-69
2022/08/13 02:04:28;;;;;;;1.48;1.10;;;21.10;60.10;;;;;;4421233;32;19965;-68
2022/08/13 02:06:59;;;;;;;1.40;1.25;;;21.00;60.40;;;;;;4421175;32;19994;-69
2022/08/13 02:09:26;;;;;;;2.78;1.20;;;20.80;60.90;;;;;;4421068;32;19963;-68
2022/08/13 02:11:54;;;;;;;1.75;1.65;;;20.80;61.00;;;;;;4420944;32;20011;-68
2022/08/13 02:14:22;;;;;;;1.95;1.00;;;20.50;63.20;;;;;;4420895;32;19994;-68
2022/08/13 02:16:49;;;;;;;2.20;1.23;;;20.30;64.60;;;;;;4420888;32;19970;-68
2022/08/13 02:19:16;;;;;;;1.80;1.40;;;19.70;65.80;;;;;;4420798;32;19961;-68
2022/08/13 02:21:44;;;;;;;2.78;1.30;;;19.40;67.40;;;;;;4420732;32;19958;-68
2022/08/13 02:24:13;;;;;;;2.47;1.50;;;19.10;68.70;;;;;;4420767;32;19972;-67
2022/08/13 02:26:42;;;;;;;1.77;1.50;;;18.90;69.50;;;;;;4420752;32;19963;-68
2022/08/13 02:29:13;;;;;;;4.43;1.67;;;18.80;69.90;;;;;;4420684;32;19979;-68
2022/08/13 02:31:42;;;;;;;1.67;1.20;;;18.70;69.70;;;;;;4420715;32;20130;-68
2022/08/13 02:34:10;;;;;;;1.55;1.37;;;18.60;70.60;;;;;;4420737;32;19959;-68
2022/08/13 02:36:40;;;;;;;2.85;1.65;;;18.40;71.40;;;;;;4419435;32;19993;-68
2022/08/13 02:39:09;;;;;;;2.25;1.25;;;18.40;70.80;;;;;;4420565;32;19957;-68
2022/08/13 02:41:43;;;;;;;3.37;1.50;;;18.40;71.80;;;;;;4420514;32;19960;-68
2022/08/13 02:44:13;;;;;;;2.25;1.10;;;18.20;72.80;;;;;;4420490;32;19992;-68
2022/08/13 02:46:42;;;;;;;3.92;1.30;;;18.10;72.90;;;;;;4420498;32;20020;-68
2022/08/13 02:49:09;;;;;;;1.73;1.48;;;18.00;72.70;;;;;;4420437;32;19972;-68
2022/08/13 02:51:37;;;;;;;2.22;1.37;;;17.90;73.80;;;;;;4420347;32;20014;-68
2022/08/13 02:54:06;;;;;;;1.83;1.35;;;17.60;74.20;;;;;;4420541;32;19979;-68
2022/08/13 02:56:33;;;;;;;2.45;1.50;;;17.70;75.20;;;;;;4420301;32;19991;-68
2022/08/13 02:59:00;;;;;;;2.05;1.58;;;17.40;76.00;;;;;;4420270;32;19978;-67
2022/08/13 03:01:29;;;;;;;1.98;1.60;;;17.30;75.80;;;;;;4420373;32;19991;-68
2022/08/13 03:03:57;;;;;;;3.25;1.50;;;17.20;77.20;;;;;;4420250;32;19956;-68
2022/08/13 03:06:25;;;;;;;2.15;1.17;;;17.10;77.70;;;;;;4420171;32;19993;-68
2022/08/13 03:08:52;;;;;;;1.92;1.33;;;17.10;76.40;;;;;;4413703;32;19999;-68
2022/08/13 03:11:20;;;;;;;2.42;1.45;;;17.10;77.30;;;;;;4420193;32;19963;-68
2022/08/13 03:13:53;;;;;;;1.52;1.27;;;17.00;77.90;;;;;;4418448;32;19961;-68
2022/08/13 03:16:24;;;;;;;2.37;1.40;;;16.90;77.00;;;;;;4420290;32;19991;-68
2022/08/13 03:18:53;;;;;;;2.35;1.40;;;17.00;76.80;;;;;;4419937;32;19959;-68
2022/08/13 03:21:21;;;;;;;1.67;1.30;;;17.00;76.50;;;;;;4420034;32;19991;-68
2022/08/13 03:23:47;;;;;;;1.95;1.45;;;17.20;76.00;;;;;;4409699;32;19963;-68
2022/08/13 03:26:14;;;;;;;1.40;1.30;;;17.20;76.70;;;;;;4419991;32;20006;-68
2022/08/13 03:28:41;;;;;;;2.35;1.52;;;16.80;78.10;;;;;;4419966;32;19993;-67
2022/08/13 03:31:08;;;;;;;2.53;1.67;;;16.80;78.20;;;;;;4419921;32;20031;-68
2022/08/13 03:33:35;;;;;;;4.20;1.45;;;16.90;77.70;;;;;;4419877;32;19988;-68
2022/08/13 03:36:04;;;;;;;2.85;1.48;;;16.90;77.80;;;;;;4419916;32;19996;-68
2022/08/13 03:38:30;;;;;;;1.90;1.48;;;16.90;77.50;;;;;;4419858;32;20050;-68
2022/08/13 03:41:11;;;;;;;1.60;1.50;;;16.90;77.50;;;;;;4419795;32;20033;-67
2022/08/13 03:43:42;;;;;;;2.10;1.55;;;16.80;78.20;;;;;;4419761;32;19998;-67
2022/08/13 03:46:09;;;;;;;2.83;1.50;;;16.60;78.80;;;;;;4419755;32;20027;-67
2022/08/13 03:48:36;;;;;;;2.87;1.50;;;16.60;78.80;;;;;;4417887;32;19974;-68
2022/08/13 03:51:05;;;;;;;2.40;1.30;;;16.70;79.60;;;;;;4406680;32;19958;-68
2022/08/13 03:53:32;;;;;;;1.45;1.20;;;16.70;78.70;;;;;;4419684;32;20463;-67
2022/08/13 03:55:59;;;;;;;1.30;1.20;;;16.80;78.70;;;;;;4422027;32;19992;-68
2022/08/13 03:58:28;;;;;;;1.58;1.37;;;16.70;79.10;;;;;;4422836;32;19974;-68
2022/08/13 04:00:55;;;;;;;2.58;1.45;;;16.70;78.70;;;;;;4422889;32;19995;-68
2022/08/13 04:03:24;;;;;;;2.00;1.42;;;16.70;79.40;;;;;;4422813;32;19966;-68
2022/08/13 04:05:54;;;;;;;1.90;1.70;;;16.70;79.30;;;;;;4421112;32;19993;-68
2022/08/13 04:08:22;;;;;;;3.20;1.58;;;16.80;80.10;;;;;;4422632;32;19963;-68
2022/08/13 04:10:49;;;;;;;3.90;1.40;;;16.60;79.70;;;;;;4422810;32;19981;-68
2022/08/13 04:13:17;;;;;;;2.15;1.52;;;16.50;80.40;;;;;;4422658;32;19993;-68
2022/08/13 04:15:44;;;;;;;1.48;1.37;;;16.50;80.80;;;;;;4422705;32;19976;-68
2022/08/13 04:18:12;;;;;;;4.37;1.77;;;16.30;81.80;;;;;;4422255;32;20045;-68
2022/08/13 04:20:40;;;;;;;2.40;1.50;;;16.30;82.70;;;;;;4422474;32;19970;-67
2022/08/13 04:23:13;;;;;;;3.20;1.45;;;16.20;83.20;;;;;;4422399;32;19963;-68
2022/08/13 04:25:42;;;;;;;2.12;1.50;;;16.20;83.70;;;;;;4422583;32;19991;-68
2022/08/13 04:28:11;;;;;;;1.73;1.50;;;16.20;83.80;;;;;;4409371;32;19963;-68
2022/08/13 04:30:40;;;;;;;2.08;1.58;;;16.10;83.90;;;;;;4422299;32;19960;-67
2022/08/13 04:33:09;;;;;;;1.58;1.48;;;16.10;84.00;;;;;;4422638;32;19974;-68
2022/08/13 04:35:36;;;;;;;2.03;1.70;;;16.10;84.00;;;;;;4422252;32;20041;-68
2022/08/13 04:38:05;;;;;;;3.97;1.70;;;16.10;84.60;;;;;;4422391;32;19998;-68
2022/08/13 04:40:32;;;;;;;2.85;2.00;;;16.10;83.20;;;;;;4422259;32;20047;-68
2022/08/13 04:43:00;;;;;;;2.50;1.80;;;16.10;84.00;;;;;;4422309;32;19964;-67
2022/08/13 04:45:29;;;;;;;2.17;1.40;;;16.00;85.20;;;;;;4422192;32;19993;-68
2022/08/13 04:47:58;;;;;;;2.78;2.05;;;16.10;84.90;;;;;;4422120;32;19964;-68
2022/08/13 04:50:25;;;;;;;2.35;1.70;;;16.00;85.90;;;;;;4422146;32;19980;-68
2022/08/13 04:52:53;;;;;;;2.80;1.80;;;15.80;86.40;;;;;;4422039;32;20042;-67
2022/08/13 04:55:20;;;;;;;2.05;1.58;;;16.30;83.90;;;;;;4422162;32;20004;-68
2022/08/13 04:57:48;;;;;;;2.62;1.85;;;16.50;83.90;;;;;;4422068;32;19993;-68
2022/08/13 05:00:17;;;;;;;3.05;1.73;;;16.50;83.90;;;;;;4422468;32;19969;-69
2022/08/13 05:02:44;;;;;;;2.78;1.60;;;16.50;83.20;;;;;;4419648;32;19998;-69
2022/08/13 05:05:12;;;;;;;3.12;1.87;;;16.40;84.20;;;;;;4422125;32;19966;-69
2022/08/13 05:07:39;;;;;;;1.90;1.60;;;16.30;85.20;;;;;;4421214;32;19961;-69
2022/08/13 05:10:06;;;;;;;5.30;2.10;;;16.30;84.80;;;;;;4422013;32;20022;-69
2022/08/13 05:12:36;;;;;;;4.40;1.90;;;16.30;85.90;;;;;;4421990;32;19975;-68
2022/08/13 05:15:06;;;;;;;4.03;1.83;;;16.40;86.00;;;;;;4422035;32;20036;-69
2022/08/13 05:17:34;;;;;;;4.18;1.80;;;16.50;85.10;;;;;;4422076;32;19997;-69
2022/08/13 05:20:01;;;;;;;2.53;2.03;;;16.40;85.60;;;;;;4421880;32;20047;-68
2022/08/13 05:22:28;;;;;;;3.00;2.00;;;16.50;84.90;;;;;;4421797;32;20002;-69
2022/08/13 05:24:55;;;;;;;3.65;1.87;;;16.50;85.90;;;;;;4421879;32;19977;-69
2022/08/13 05:27:21;;;;;;;2.42;1.87;;;16.70;84.20;;;;;;4421917;32;20021;-68
2022/08/13 05:29:48;;;;;;;2.58;1.70;;;16.90;83.90;;;;;;4421787;32;20007;-69
2022/08/13 05:32:15;;;;;;;3.90;2.00;;;17.10;84.60;;;;;;4421955;32;20007;-69
2022/08/13 05:34:43;;;;;;;3.30;2.03;;;17.10;83.30;;;;;;4421692;32;19961;-68
2022/08/13 05:37:15;;;;;;;2.50;1.70;;;17.30;82.60;;;;;;4421660;32;19988;-68
2022/08/13 05:39:43;;;;;;;2.30;1.67;;;17.70;80.00;;;;;;4415456;32;19978;-68
2022/08/13 05:42:10;;;;;;;2.37;1.67;;;17.80;80.20;;;;;;4421535;32;19986;-69
2022/08/13 05:44:37;;;;;;;3.37;1.85;;;17.90;80.00;;;;;;4421551;32;20107;-69
2022/08/13 05:47:04;;;;;;;2.80;1.98;;;18.10;79.70;;;;;;4421746;32;19991;-69
2022/08/13 05:49:31;;;;;;;2.95;1.87;;;18.20;80.60;;;;;;4421448;32;20136;-68
2022/08/13 05:52:01;;;;;;;3.47;2.10;;;18.40;80.80;;;;;;4419713;32;19970;-69
2022/08/13 05:54:30;;;;;;;5.22;2.05;;;18.80;82.70;;;;;;4421356;32;19966;-68
2022/08/13 05:56:57;;;;;;;3.70;1.85;;;19.40;77.90;;;;;;4421582;32;20137;-69
2022/08/13 06:04:53;;;;;;;1.98;1.77;;;21.50;71.00;;;;;;4421330;32;19961;-69
2022/08/13 06:07:22;;;;;;;3.85;1.60;;;22.20;69.20;;;;;;4421576;32;19993;-69
2022/08/13 06:09:48;;;;;;;2.10;1.62;;;22.80;67.60;;;;;;4421184;32;19968;-69
2022/08/13 06:12:16;;;;;;;2.17;1.70;;;23.60;64.90;;;;;;4421229;32;19989;-69
2022/08/13 06:14:43;;;;;;;4.53;2.15;;;23.80;63.50;;;;;;4420938;32;19994;-69
2022/08/13 06:17:13;;;;;;;3.55;2.25;;;24.60;62.50;;;;;;4420812;32;19987;-69
2022/08/13 06:19:43;;;;;;;2.60;2.00;;;25.10;61.50;;;;;;4421055;32;19967;-69
2022/08/13 06:22:12;;;;;;;3.70;2.42;;;26.30;59.20;;;;;;4421169;32;19968;-69
2022/08/13 06:24:40;;;;;;;4.43;2.55;;;26.40;58.80;;;;;;4421113;32;19968;-69
2022/08/13 06:27:06;;;;;;;3.72;2.30;;;27.50;57.30;;;;;;4420957;32;19991;-69
2022/08/13 06:29:35;;;;;;;5.82;2.90;;;27.00;57.50;;;;;;4420887;32;20020;-70
2022/08/13 06:32:04;;;;;;;4.30;2.35;;;27.90;56.80;;;;;;4420930;32;20102;-69
2022/08/13 06:34:34;;;;;;;4.40;2.30;;;28.00;55.40;;;;;;4415970;32;19965;-69
2022/08/13 06:37:02;;;;;;;4.57;2.33;;;28.20;55.80;;;;;;4420996;32;20015;-69
2022/08/13 06:39:30;;;;;;;4.57;2.10;;;28.50;56.20;;;;;;4420871;32;19963;-69
2022/08/13 06:42:02;;;;;;;4.03;2.17;;;28.70;54.80;;;;;;4417710;32;20164;-69
2022/08/13 06:44:31;;;;;;;3.62;2.30;;;29.20;54.70;;;;;;4420979;32;19960;-69
2022/08/13 06:47:03;;;;;;;2.92;2.30;;;29.70;54.70;;;;;;4420739;32;20130;-69
2022/08/13 06:49:31;;;;;;;4.82;2.22;;;28.90;55.30;;;;;;4414980;32;19966;-69
2022/08/13 06:51:58;;;;;;;4.32;2.97;;;28.70;55.20;;;;;;4420528;32;19999;-69
2022/08/13 06:54:25;;;;;;;3.87;2.50;;;29.60;53.70;;;;;;4420651;32;19959;-69
2022/08/13 06:56:53;;;;;;;3.67;2.33;;;29.40;54.20;;;;;;4420675;32;19997;-69
2022/08/13 06:59:23;;;;;;;5.15;2.67;;;29.70;54.00;;;;;;4420481;32;19960;-69
2022/08/13 07:01:53;;;;;;;6.80;2.93;;;29.00;54.90;;;;;;4420680;32;19972;-69
2022/08/13 07:04:20;;;;;;;5.43;2.50;;;29.90;54.60;;;;;;4417513;32;20092;-69
2022/08/13 07:06:48;;;;;;;4.70;2.72;;;28.90;55.70;;;;;;4420363;32;19991;-69
2022/08/13 07:09:17;;;;;;;3.58;2.20;;;29.10;55.50;;;;;;4420393;32;20023;-69
2022/08/13 07:11:45;;;;;;;4.07;1.90;;;29.30;54.10;;;;;;4419813;32;19970;-69
2022/08/13 07:14:14;;;;;;;5.68;1.85;;;29.70;53.20;;;;;;4420200;32;19967;-69
2022/08/13 07:16:45;;;;;;;3.22;1.60;;;29.80;53.00;;;;;;4420244;32;19960;-69
2022/08/13 07:19:12;;;;;;;3.30;1.80;;;29.50;53.90;;;;;;4420259;32;20021;-69
2022/08/13 07:21:40;;;;;;;2.08;1.87;;;29.80;53.30;;;;;;4420144;32;19958;-69
2022/08/13 07:24:08;;;;;;;2.70;1.98;;;30.20;52.60;;;;;;4420332;32;19959;-69
2022/08/13 07:26:36;;;;;;;3.87;2.05;;;30.20;52.10;;;;;;4416501;32;19989;-69
2022/08/13 07:29:05;;;;;;;3.03;1.85;;;29.60;53.10;;;;;;4418086;32;19976;-68
2022/08/13 07:31:33;;;;;;;3.55;2.10;;;30.10;52.80;;;;;;4419997;32;19991;-68
2022/08/13 07:34:06;;;;;;;5.40;2.10;;;29.50;53.70;;;;;;4420081;32;19988;-69
2022/08/13 07:36:36;;;;;;;3.12;2.03;;;29.60;53.60;;;;;;4419985;32;19981;-69
2022/08/13 07:39:07;;;;;;;5.35;2.47;;;29.00;53.40;;;;;;4419943;32;19960;-69
2022/08/13 07:41:36;;;;;;;2.33;1.80;;;29.20;54.10;;;;;;4416301;32;19966;-69
2022/08/13 07:44:03;;;;;;;3.53;2.03;;;28.60;55.40;;;;;;4419827;32;20019;-69
2022/08/13 07:46:35;;;;;;;2.65;2.10;;;29.60;54.40;;;;;;4419951;32;19995;-70
2022/08/13 07:49:03;;;;;;;3.03;2.05;;;29.40;53.00;;;;;;4419898;32;19982;-68
2022/08/13 07:51:30;;;;;;;2.90;1.90;;;28.70;54.00;;;;;;4419740;32;19994;-69
2022/08/13 07:53:57;;;;;;;1.83;1.58;;;29.20;54.50;;;;;;4420104;32;20084;-69
2022/08/13 07:56:28;;;;;;;3.83;1.80;;;29.50;52.70;;;;;;4419843;32;19959;-68
2022/08/13 07:59:00;;;;;;;3.92;1.50;;;29.30;53.70;;;;;;4419681;32;19963;-68
2022/08/13 08:01:27;;;;;;;2.97;1.83;;;29.50;52.10;;;;;;4419868;32;19990;-68
2022/08/13 08:03:56;;;;;;;2.53;1.67;;;29.90;52.70;;;;;;4415417;32;20047;-68
2022/08/13 08:06:25;;;;;;;2.65;1.70;;;29.80;53.00;;;;;;4418840;32;19976;-67
2022/08/13 08:08:53;;;;;;;2.72;1.80;;;29.80;53.70;;;;;;4415419;32;19963;-68
2022/08/13 08:14:02;;;;;;;3.08;1.95;;;29.60;53.20;;;;;;4418926;32;19988;-69
2022/08/13 08:16:30;;;;;;;2.97;1.77;;;30.20;52.80;;;;;;4419733;32;20069;-68
2022/08/13 08:18:59;;;;;;;2.15;1.60;;;31.00;52.40;;;;;;4419699;32;19976;-68
2022/08/13 08:21:29;;;;;;;1.40;1.30;;;31.60;51.50;;;;;;4419767;32;19979;-69
2022/08/13 08:24:01;;;;;;;4.82;1.70;;;30.80;52.50;;;;;;4419729;32;20120;-69
2022/08/13 08:26:30;;;;;;;1.98;1.40;;;31.10;49.50;;;;;;4406712;32;19958;-68
2022/08/13 08:28:58;;;;;;;3.95;1.55;;;31.20;46.50;;;;;;4419538;32;19964;-68
2022/08/13 08:31:27;;;;;;;1.60;1.33;;;32.20;47.50;;;;;;4419588;32;20018;-69
2022/08/13 08:34:00;;;;;;;2.40;1.40;;;31.70;44.60;;;;;;4419623;32;19989;-68
2022/08/13 08:36:30;;;;;;;1.67;1.30;;;32.70;45.60;;;;;;4419674;32;19977;-68
2022/08/13 08:44:32;;;;;;;2.70;1.52;;;32.50;45.10;;;;;;4422373;32;20123;-69
2022/08/13 08:46:59;;;;;;;2.78;1.42;;;32.20;46.20;;;;;;4422386;32;19965;-68
2022/08/13 08:49:28;;;;;;;2.70;1.73;;;33.00;46.70;;;;;;4422410;32;20090;-68
2022/08/13 08:51:57;;;;;;;3.55;1.60;;;33.10;46.10;;;;;;4422310;32;19959;-69
2022/08/13 08:54:24;;;;;;;3.53;1.48;;;34.00;42.70;;;;;;4422196;32;19993;-69
2022/08/13 08:56:55;;;;;;;2.03;1.42;;;32.80;42.70;;;;;;4422173;32;19959;-69
2022/08/13 08:59:24;;;;;;;2.23;1.60;;;32.80;44.70;;;;;;4422263;32;19989;-69
2022/08/13 09:01:55;;;;;;;3.28;1.52;;;32.40;44.00;;;;;;4420706;32;19976;-69
2022/08/13 09:04:25;;;;;;;3.05;1.40;;;32.30;42.40;;;;;;4422129;32;20138;-69
2022/08/13 09:06:56;;;;;;;1.92;1.58;;;31.90;42.70;;;;;;4422124;32;19959;-69
2022/08/13 09:09:25;;;;;;;4.97;1.50;;;32.30;45.80;;;;;;4421079;32;19966;-69
2022/08/13 09:11:55;;;;;;;2.10;1.70;;;32.80;48.80;;;;;;4422047;32;19994;-69
2022/08/13 09:14:25;;;;;;;3.40;1.48;;;32.30;42.00;;;;;;4422029;32;19956;-69
2022/08/13 09:16:54;;;;;;;2.63;1.50;;;33.10;44.10;;;;;;4422151;32;19967;-69
2022/08/13 09:19:23;;;;;;;4.10;1.48;;;33.10;43.20;;;;;;4421843;32;20053;-68
2022/08/13 09:21:51;;;;;;;2.97;1.55;;;33.30;42.00;;;;;;4421832;32;19958;-69
2022/08/13 09:24:24;;;;;;;2.65;1.40;;;33.40;40.90;;;;;;4417474;32;19964;-69
2022/08/13 09:26:53;;;;;;;4.37;1.70;;;34.70;41.10;;;;;;4421982;32;19979;-69
2022/08/13 09:29:23;;;;;;;3.37;1.77;;;33.90;46.50;;;;;;4421764;32;20018;-68
2022/08/13 09:31:58;;;;;;;3.40;1.33;;;34.60;45.90;;;;;;4422001;32;19976;-68
2022/08/13 09:34:25;;;;;;;1.62;1.42;;;36.00;42.50;;;;;;4421590;32;19997;-69
2022/08/13 09:36:56;;;;;;;2.47;1.60;;;35.00;40.50;;;;;;4421709;32;19989;-68
2022/08/13 09:39:33;;;;;;;2.20;1.60;;;33.60;41.10;;;;;;4421601;32;20005;-69
2022/08/13 09:42:06;;;;;;;3.22;1.40;;;34.30;42.40;;;;;;4421680;32;19968;-69
2022/08/13 09:44:38;;;;;;;2.97;1.55;;;35.90;44.60;;;;;;4421496;32;20058;-69
2022/08/13 09:47:05;;;;;;;4.45;1.45;;;37.20;41.40;;;;;;4421444;32;19960;-69
2022/08/13 09:49:33;;;;;;;2.40;1.37;;;37.30;41.90;;;;;;4421543;32;19970;-69
2022/08/13 09:52:00;;;;;;;3.35;1.40;;;38.60;40.50;;;;;;4419479;32;19975;-69
2022/08/13 09:54:26;;;;;;;2.20;1.58;;;39.70;38.30;;;;;;4421168;32;20020;-68
2022/08/13 09:56:53;;;;;;;1.40;1.30;;;39.00;37.40;;;;;;4421567;32;20148;-68
2022/08/13 09:59:22;;;;;;;2.45;1.40;;;38.80;37.00;;;;;;4421395;32;19970;-68
2022/08/13 10:01:49;;;;;;;2.22;1.60;;;37.50;36.80;;;;;;4421339;32;19963;-69
2022/08/13 10:04:18;;;;;;;4.35;1.23;;;35.90;38.00;;;;;;4421096;32;19988;-69
2022/08/13 10:06:45;;;;;;;3.10;1.27;;;37.70;38.80;;;;;;4421432;32;19961;-69
2022/08/13 10:09:12;;;;;;;2.72;1.30;;;39.60;38.10;;;;;;4421210;32;19995;-69
2022/08/13 10:11:39;;;;;;;1.20;1.00;;;37.90;36.80;;;;;;4411115;32;19963;-69
2022/08/13 10:14:06;;;;;;;3.03;1.45;;;38.80;38.70;;;;;;4421191;32;20071;-69
2022/08/13 10:16:34;;;;;;;1.73;1.33;;;38.80;36.00;;;;;;4421196;32;20024;-69
2022/08/13 10:19:03;;;;;;;2.00;1.33;;;41.30;36.00;;;;;;4421072;32;19972;-68
2022/08/13 10:21:29;;;;;;;3.17;1.10;;;40.90;36.50;;;;;;4421086;32;20018;-69
2022/08/13 10:23:56;;;;;;;3.75;1.30;;;39.30;35.00;;;;;;4420867;32;20001;-69
2022/08/13 10:26:23;;;;;;;2.67;1.30;;;39.30;36.20;;;;;;4420953;32;19991;-69
2022/08/13 10:28:49;;;;;;;2.92;1.45;;;38.20;38.20;;;;;;4420923;32;19986;-69
2022/08/13 10:31:16;;;;;;;3.30;1.42;;;37.60;36.00;;;;;;4419231;32;19991;-68
2022/08/13 10:33:45;;;;;;;2.45;1.37;;;38.70;36.60;;;;;;4421012;32;19965;-69
2022/08/13 10:36:14;;;;;;;4.22;1.50;;;38.60;37.60;;;;;;4420842;32;19971;-69
2022/08/13 10:38:41;;;;;;;1.97;1.47;;;38.50;36.50;;;;;;4420951;32;19961;-69
2022/08/13 10:41:08;;;;;;;3.00;1.48;;;39.70;34.90;;;;;;4420654;32;20001;-69
2022/08/13 10:43:38;;;;;;;3.42;1.52;;;40.60;35.80;;;;;;4420704;32;19959;-70
2022/08/13 10:46:06;;;;;;;1.58;1.40;;;40.50;34.00;;;;;;4418672;32;19956;-69
2022/08/13 10:48:33;;;;;;;1.75;1.30;;;39.10;35.10;;;;;;4420529;32;19990;-69
2022/08/13 10:51:01;;;;;;;2.12;1.40;;;36.60;37.00;;;;;;4420568;32;19956;-69
2022/08/13 10:56:12;;;;;;;1.37;1.20;;;33.80;39.60;;;;;;4418639;32;20116;-68
2022/08/13 10:58:39;;;;;;;2.30;1.42;;;35.10;38.70;;;;;;4420383;32;20000;-70
2022/08/13 11:01:06;;;;;;;2.17;1.60;;;36.20;38.20;;;;;;4420362;32;19960;-69
2022/08/13 11:03:34;;;;;;;2.75;1.60;;;35.50;37.20;;;;;;4420270;32;19979;-69
2022/08/13 11:06:04;;;;;;;1.35;1.20;;;37.60;36.50;;;;;;4420234;32;19961;-68
2022/08/13 11:08:31;;;;;;;2.70;1.30;;;37.10;34.90;;;;;;4420413;32;19959;-68
2022/08/13 11:10:58;;;;;;;2.17;1.10;;;36.20;36.00;;;;;;4420438;32;19979;-69
2022/08/13 11:13:24;;;;;;;1.40;1.20;;;37.70;35.80;;;;;;4420299;32;19998;-69
2022/08/13 11:15:51;;;;;;;2.15;1.42;;;38.20;34.20;;;;;;4420435;32;19991;-69
2022/08/13 11:18:19;;;;;;;2.12;1.33;;;37.40;35.70;;;;;;4420136;32;19981;-69
2022/08/13 11:23:28;;;;;;;1.75;1.33;;;38.40;35.40;;;;;;4420006;32;19965;-69
2022/08/13 11:25:55;;;;;;;1.52;1.37;;;36.90;35.20;;;;;;4420086;32;19993;-69
2022/08/13 11:28:22;;;;;;;1.90;1.50;;;37.00;36.30;;;;;;4420215;32;19965;-69
2022/08/13 11:30:50;;;;;;;1.52;1.30;;;37.70;34.90;;;;;;4420172;32;19979;-69
2022/08/13 11:33:17;;;;;;;2.62;1.50;;;36.90;35.40;;;;;;4420195;32;20016;-69
2022/08/13 11:35:45;;;;;;;1.73;1.30;;;36.00;36.40;;;;;;4420003;32;20134;-69
2022/08/13 11:38:14;;;;;;;2.55;1.55;;;35.50;37.10;;;;;;4420016;32;19994;-69
2022/08/13 11:40:47;;;;;;;1.52;1.42;;;35.50;37.00;;;;;;4419880;32;20137;-68
2022/08/13 11:43:13;;;;;;;2.50;1.52;;;36.00;36.00;;;;;;4420122;32;20054;-68
2022/08/13 11:45:40;;;;;;;1.77;1.30;;;35.10;37.00;;;;;;4419818;32;20021;-69
2022/08/13 11:48:07;;;;;;;3.03;1.65;;;35.00;36.80;;;;;;4419949;32;20003;-68
2022/08/13 11:50:34;;;;;;;1.62;1.20;;;35.40;36.90;;;;;;4419896;32;19958;-69
2022/08/13 11:53:01;;;;;;;2.50;1.50;;;35.00;36.50;;;;;;4419826;32;19972;-69
2022/08/13 11:55:28;;;;;;;3.30;1.35;;;36.60;37.70;;;;;;4419846;32;19993;-70
2022/08/13 11:58:00;;;;;;;1.35;1.20;;;34.70;35.60;;;;;;4419808;32;19994;-69
2022/08/13 12:00:27;;;;;;;1.67;1.15;;;33.70;36.70;;;;;;4419814;32;19960;-69
2022/08/13 12:02:54;;;;;;;4.30;1.33;;;33.10;36.70;;;;;;4413248;32;19963;-69
2022/08/13 12:05:21;;;;;;;2.72;1.48;;;32.20;38.00;;;;;;4419285;32;20136;-69
2022/08/13 12:07:47;;;;;;;2.37;1.45;;;32.80;37.70;;;;;;4419820;32;19964;-69
2022/08/13 12:10:16;;;;;;;2.17;1.17;;;31.40;38.40;;;;;;4419962;32;19994;-69
2022/08/13 12:12:44;;;;;;;1.98;1.37;;;31.20;39.40;;;;;;4417895;32;19972;-69
2022/08/13 12:15:13;;;;;;;2.10;1.23;;;31.00;39.40;;;;;;4419714;32;19994;-69
2022/08/13 12:17:42;;;;;;;2.00;1.75;;;31.70;39.50;;;;;;4422838;32;20017;-68
2022/08/13 12:20:10;;;;;;;2.17;1.42;;;32.80;40.60;;;;;;4422755;32;19958;-69
2022/08/13 12:22:37;;;;;;;1.95;1.50;;;31.60;39.30;;;;;;4415494;32;19981;-69
2022/08/13 12:25:04;;;;;;;1.83;1.27;;;31.00;39.30;;;;;;4422570;32;19972;-68
2022/08/13 12:27:31;;;;;;;3.22;1.50;;;31.50;39.80;;;;;;4422684;32;20000;-69
2022/08/13 12:29:58;;;;;;;2.87;1.40;;;31.40;40.00;;;;;;4422547;32;20068;-69
2022/08/13 12:32:26;;;;;;;3.90;1.52;;;31.60;41.50;;;;;;4422425;32;19974;-69
2022/08/13 12:34:53;;;;;;;1.70;1.33;;;32.30;39.30;;;;;;4422360;32;20025;-69
2022/08/13 12:37:22;;;;;;;1.52;1.30;;;32.10;40.10;;;;;;4422539;32;19995;-68
2022/08/13 12:39:49;;;;;;;2.95;1.50;;;31.10;38.80;;;;;;4413609;32;19982;-69
2022/08/13 12:42:16;;;;;;;1.65;1.40;;;31.40;40.40;;;;;;4422417;32;19992;-68
2022/08/13 12:44:42;;;;;;;2.20;1.35;;;32.20;39.70;;;;;;4420573;32;20127;-69
2022/08/13 12:47:09;;;;;;;1.67;1.23;;;32.40;38.20;;;;;;4422427;32;20122;-68
2022/08/13 12:49:37;;;;;;;1.67;1.40;;;31.50;38.50;;;;;;4422383;32;20024;-69
2022/08/13 12:52:04;;;;;;;2.05;1.35;;;31.00;39.00;;;;;;4420139;32;19993;-69
2022/08/13 12:54:31;;;;;;;1.55;1.45;;;31.00;39.60;;;;;;4422406;32;20022;-69
2022/08/13 12:56:58;;;;;;;2.08;1.35;;;30.70;40.20;;;;;;4422296;32;20072;-69
2022/08/13 12:59:25;;;;;;;1.92;1.55;;;30.80;39.50;;;;;;4422301;32;19997;-69
2022/08/13 13:01:53;;;;;;;2.25;1.60;;;30.80;40.10;;;;;;4422101;32;20077;-68
2022/08/13 13:04:20;;;;;;;4.07;1.75;;;31.20;41.50;;;;;;4422236;32;19974;-68
2022/08/13 13:06:48;;;;;;;2.75;1.77;;;31.00;41.40;;;;;;4422111;32;19964;-69
2022/08/13 13:09:15;;;;;;;1.60;1.50;;;31.50;41.00;;;;;;4422180;32;19998;-69
2022/08/13 13:11:42;;;;;;;2.25;1.62;;;32.10;40.80;;;;;;4419907;32;20106;-69
2022/08/13 13:14:10;;;;;;;1.60;1.42;;;31.70;39.60;;;;;;4421979;32;20117;-67
2022/08/13 13:16:38;;;;;;;2.80;1.60;;;31.40;40.10;;;;;;4422174;32;19956;-69
2022/08/13 13:19:06;;;;;;;4.07;1.35;;;30.70;39.80;;;;;;4421850;32;19963;-69
2022/08/13 13:21:34;;;;;;;2.40;1.58;;;30.80;40.10;;;;;;4421931;32;19965;-69
2022/08/13 13:24:03;;;;;;;2.17;1.55;;;31.30;39.70;;;;;;4421769;32;20138;-69